Earlysville, VA

1:14 AM EDT on March 27, 2015 (GMT -0400)
Beau Mont Farm | Change Station
CLOSE
Current Station
Personal Weather Station
Location: Charlottesville, VA
Elevation: 488 ft
Nearby Weather Stations

Elev 488 ft 38.13 °N, 78.53 °W | Updated 4 minutes ago

Light Rain
Light Rain
54.9 °F
Feels Like 54.9 °F
N
-
Wind Variable Wind from North

Today
High -- | Low -- °F
--% Chance of Precip.
Yesterday
High -- | Low -- °F
Precip. -- in
7:07 AM 7:32 PM
Waxing Crescent, 49% visible
Pressure 29.72 in
Visibility 7.0 miles
Clouds Overcast 3100 ft
Dew Point 52 °F
Humidity 91%
Rainfall -999.00 in
Snow Depth Not available.
UV 0 out of 12
Pollen 9.50 out of 12
Air Quality Not available.
Flu Activity Regional
SPECI KCHO 270504Z 35004KT 7SM -RA OVC031 11/09 A2972 RMK AO2 P0001 T01060094

More Conditions Fewer Conditions

Pressure 29.72 in
Visibility 7.0 miles
Clouds Overcast 3100 ft
Dew Point 52 °F
Humidity 91%
Rainfall -999.00 in
Snow Depth Not available.
UV 0 out of 12
Pollen 9.50 out of 12
Air Quality Not available.
Flu Activity Regional
SPECI KCHO 270504Z 35004KT 7SM -RA OVC031 11/09 A2972 RMK AO2 P0001 T01060094

More Conditions Fewer Conditions

10-Day Weather Forecast

Almanac

Astronomy

Mar. 27, 2015 Rise Set
Actual Time 7:07 AM EDT 7:32 PM EDT
Civil Twilight 6:40 AM EDT 7:58 PM EDT
Nautical Twilight 6:09 AM EDT 8:29 PM EDT
Astronomical Twilight 5:38 AM EDT 9:01 PM EDT
Moon 12:43 PM EDT 2:18 AM EDT
Length of Visible Light 13h 17m
Length of Day
12h 25m
Tomorrow will be 2m 27s longer.
Waxing Crescent, 49% of the Moon is Illuminated
Today
Waxing Crescent
Mar 27
First Quarter
Apr 4
Full
Apr 11
Last Quarter
Apr 18
New

Today's Extremes

State Highs State Lows

Community

WunderPhotos

Upload Photos

1,808,697 photos uploaded!

WunderBlogs® & News

Nearby

Snow Depth

Station Depth Elevation
No new snow has been reported.

Earthquake Activity

City Distance Mag. Time & Date
No recent earthquake activity has been reported nearby.
Minimum magnitude displayed is 2.5.

Coastal Water Temperatures

Place Temperature
No Stations Reporting

Nearby Weather Stations